sensor_id;sensor_type;location;lat;lon;timestamp;P1;durP1;ratioP1;P2;durP2;ratioP2
6549;SDS011;15142;48.888;9.134;2022-11-20T00:01:28;36.30;;;15.93;;
6549;SDS011;15142;48.888;9.134;2022-11-20T00:03:57;26.30;;;14.57;;
6549;SDS011;15142;48.888;9.134;2022-11-20T00:06:25;28.43;;;14.00;;
6549;SDS011;15142;48.888;9.134;2022-11-20T00:08:54;25.13;;;14.20;;
6549;SDS011;15142;48.888;9.134;2022-11-20T00:11:23;51.97;;;17.57;;
6549;SDS011;15142;48.888;9.134;2022-11-20T00:13:51;47.50;;;16.33;;
6549;SDS011;15142;48.888;9.134;2022-11-20T00:16:19;32.70;;;15.17;;
6549;SDS011;15142;48.888;9.134;2022-11-20T00:18:47;143.17;;;19.37;;
6549;SDS011;15142;48.888;9.134;2022-11-20T00:21:16;44.53;;;17.30;;
6549;SDS011;15142;48.888;9.134;2022-11-20T00:23:44;35.43;;;16.90;;
6549;SDS011;15142;48.888;9.134;2022-11-20T00:26:12;41.87;;;17.33;;
6549;SDS011;15142;48.888;9.134;2022-11-20T00:28:40;27.33;;;15.43;;
6549;SDS011;15142;48.888;9.134;2022-11-20T00:31:08;34.47;;;15.47;;
6549;SDS011;15142;48.888;9.134;2022-11-20T00:33:36;25.90;;;14.97;;
6549;SDS011;15142;48.888;9.134;2022-11-20T00:36:04;24.60;;;14.37;;
6549;SDS011;15142;48.888;9.134;2022-11-20T00:38:33;26.53;;;14.60;;
6549;SDS011;15142;48.888;9.134;2022-11-20T00:41:00;32.77;;;14.73;;
6549;SDS011;15142;48.888;9.134;2022-11-20T00:43:29;25.33;;;14.53;;
6549;SDS011;15142;48.888;9.134;2022-11-20T00:45:56;27.43;;;14.80;;
6549;SDS011;15142;48.888;9.134;2022-11-20T00:48:23;21.67;;;13.00;;
6549;SDS011;15142;48.888;9.134;2022-11-20T00:50:50;27.07;;;14.50;;
6549;SDS011;15142;48.888;9.134;2022-11-20T00:53:17;44.73;;;15.37;;
6549;SDS011;15142;48.888;9.134;2022-11-20T00:55:53;24.57;;;12.87;;
6549;SDS011;15142;48.888;9.134;2022-11-20T00:58:20;35.20;;;11.90;;
6549;SDS011;15142;48.888;9.134;2022-11-20T01:00:47;37.93;;;13.70;;
6549;SDS011;15142;48.888;9.134;2022-11-20T01:03:14;47.60;;;16.77;;
6549;SDS011;15142;48.888;9.134;2022-11-20T01:05:41;20.27;;;12.10;;
6549;SDS011;15142;48.888;9.134;2022-11-20T01:08:08;24.70;;;13.73;;
6549;SDS011;15142;48.888;9.134;2022-11-20T01:10:34;17.47;;;10.87;;
6549;SDS011;15142;48.888;9.134;2022-11-20T01:13:02;18.30;;;10.90;;
6549;SDS011;15142;48.888;9.134;2022-11-20T01:16:02;21.97;;;12.37;;
6549;SDS011;15142;48.888;9.134;2022-11-20T01:18:29;18.93;;;10.70;;
6549;SDS011;15142;48.888;9.134;2022-11-20T01:20:55;19.80;;;11.20;;
6549;SDS011;15142;48.888;9.134;2022-11-20T01:23:29;14.50;;;10.37;;
6549;SDS011;15142;48.888;9.134;2022-11-20T01:25:57;14.50;;;10.70;;
6549;SDS011;15142;48.888;9.134;2022-11-20T01:28:27;20.00;;;12.40;;
6549;SDS011;15142;48.888;9.134;2022-11-20T01:30:54;25.73;;;13.20;;
6549;SDS011;15142;48.888;9.134;2022-11-20T01:33:21;32.33;;;13.03;;
6549;SDS011;15142;48.888;9.134;2022-11-20T01:35:48;26.57;;;12.63;;
6549;SDS011;15142;48.888;9.134;2022-11-20T01:38:15;26.13;;;13.60;;
6549;SDS011;15142;48.888;9.134;2022-11-20T01:40:41;21.73;;;12.40;;
6549;SDS011;15142;48.888;9.134;2022-11-20T01:43:10;25.30;;;13.50;;
6549;SDS011;15142;48.888;9.134;2022-11-20T01:45:57;19.37;;;10.60;;
6549;SDS011;15142;48.888;9.134;2022-11-20T01:48:28;19.23;;;11.80;;
6549;SDS011;15142;48.888;9.134;2022-11-20T01:50:59;23.83;;;13.87;;
6549;SDS011;15142;48.888;9.134;2022-11-20T01:53:27;20.40;;;11.50;;
6549;SDS011;15142;48.888;9.134;2022-11-20T01:55:58;20.20;;;11.63;;
6549;SDS011;15142;48.888;9.134;2022-11-20T01:58:28;21.40;;;12.07;;
6549;SDS011;15142;48.888;9.134;2022-11-20T02:00:59;18.40;;;11.33;;
6549;SDS011;15142;48.888;9.134;2022-11-20T02:03:26;16.33;;;11.07;;
6549;SDS011;15142;48.888;9.134;2022-11-20T02:05:55;17.20;;;11.30;;
6549;SDS011;15142;48.888;9.134;2022-11-20T02:08:24;24.57;;;12.03;;
6549;SDS011;15142;48.888;9.134;2022-11-20T02:10:51;18.97;;;11.10;;
6549;SDS011;15142;48.888;9.134;2022-11-20T02:13:18;16.87;;;10.33;;
6549;SDS011;15142;48.888;9.134;2022-11-20T02:16:03;20.70;;;10.17;;
6549;SDS011;15142;48.888;9.134;2022-11-20T02:18:34;16.97;;;10.90;;
6549;SDS011;15142;48.888;9.134;2022-11-20T02:21:03;16.63;;;11.13;;
6549;SDS011;15142;48.888;9.134;2022-11-20T02:23:35;19.50;;;10.90;;
6549;SDS011;15142;48.888;9.134;2022-11-20T02:26:09;15.87;;;9.90;;
6549;SDS011;15142;48.888;9.134;2022-11-20T02:28:39;13.43;;;9.50;;
6549;SDS011;15142;48.888;9.134;2022-11-20T02:31:05;20.30;;;11.27;;
6549;SDS011;15142;48.888;9.134;2022-11-20T02:33:32;16.87;;;9.40;;
6549;SDS011;15142;48.888;9.134;2022-11-20T02:35:59;13.10;;;8.80;;
6549;SDS011;15142;48.888;9.134;2022-11-20T02:38:26;13.37;;;7.67;;
6549;SDS011;15142;48.888;9.134;2022-11-20T02:40:53;31.10;;;7.90;;
6549;SDS011;15142;48.888;9.134;2022-11-20T02:43:21;12.13;;;5.87;;
6549;SDS011;15142;48.888;9.134;2022-11-20T02:45:47;6.27;;;5.00;;
6549;SDS011;15142;48.888;9.134;2022-11-20T02:48:14;4.83;;;4.27;;
6549;SDS011;15142;48.888;9.134;2022-11-20T02:50:41;7.03;;;4.87;;
6549;SDS011;15142;48.888;9.134;2022-11-20T02:53:07;7.40;;;3.53;;
6549;SDS011;15142;48.888;9.134;2022-11-20T02:55:34;4.90;;;4.40;;
6549;SDS011;15142;48.888;9.134;2022-11-20T02:58:01;4.43;;;3.40;;
6549;SDS011;15142;48.888;9.134;2022-11-20T03:00:29;4.10;;;3.57;;
6549;SDS011;15142;48.888;9.134;2022-11-20T03:02:57;4.37;;;2.97;;
6549;SDS011;15142;48.888;9.134;2022-11-20T03:05:23;7.10;;;3.63;;
6549;SDS011;15142;48.888;9.134;2022-11-20T03:07:50;4.13;;;3.87;;
6549;SDS011;15142;48.888;9.134;2022-11-20T03:10:16;4.37;;;3.60;;
6549;SDS011;15142;48.888;9.134;2022-11-20T03:12:43;3.00;;;2.70;;
6549;SDS011;15142;48.888;9.134;2022-11-20T03:15:10;3.57;;;3.27;;
6549;SDS011;15142;48.888;9.134;2022-11-20T03:17:38;3.70;;;3.40;;
6549;SDS011;15142;48.888;9.134;2022-11-20T03:20:05;4.80;;;2.93;;
6549;SDS011;15142;48.888;9.134;2022-11-20T03:22:34;5.00;;;3.70;;
6549;SDS011;15142;48.888;9.134;2022-11-20T03:25:00;3.87;;;3.23;;
6549;SDS011;15142;48.888;9.134;2022-11-20T03:27:27;6.37;;;4.07;;
6549;SDS011;15142;48.888;9.134;2022-11-20T03:29:58;3.50;;;3.20;;
6549;SDS011;15142;48.888;9.134;2022-11-20T03:32:25;3.30;;;3.07;;
6549;SDS011;15142;48.888;9.134;2022-11-20T03:34:52;4.80;;;3.90;;
6549;SDS011;15142;48.888;9.134;2022-11-20T03:37:19;4.47;;;4.07;;
6549;SDS011;15142;48.888;9.134;2022-11-20T03:39:46;6.40;;;4.27;;
6549;SDS011;15142;48.888;9.134;2022-11-20T03:42:12;9.03;;;4.13;;
6549;SDS011;15142;48.888;9.134;2022-11-20T03:44:53;5.93;;;4.30;;
6549;SDS011;15142;48.888;9.134;2022-11-20T03:47:19;7.47;;;3.80;;
6549;SDS011;15142;48.888;9.134;2022-11-20T03:49:46;4.47;;;3.63;;
6549;SDS011;15142;48.888;9.134;2022-11-20T03:52:14;5.93;;;4.93;;
6549;SDS011;15142;48.888;9.134;2022-11-20T03:54:40;4.77;;;3.80;;
6549;SDS011;15142;48.888;9.134;2022-11-20T03:57:07;6.43;;;4.63;;
6549;SDS011;15142;48.888;9.134;2022-11-20T03:59:33;4.17;;;3.83;;
6549;SDS011;15142;48.888;9.134;2022-11-20T04:02:00;6.10;;;3.63;;
6549;SDS011;15142;48.888;9.134;2022-11-20T04:04:27;3.53;;;3.23;;
6549;SDS011;15142;48.888;9.134;2022-11-20T04:06:53;4.23;;;3.83;;
6549;SDS011;15142;48.888;9.134;2022-11-20T04:09:21;6.30;;;4.73;;
6549;SDS011;15142;48.888;9.134;2022-11-20T04:11:48;4.03;;;3.63;;
6549;SDS011;15142;48.888;9.134;2022-11-20T04:14:15;4.80;;;3.80;;
6549;SDS011;15142;48.888;9.134;2022-11-20T04:16:42;7.53;;;4.17;;
6549;SDS011;15142;48.888;9.134;2022-11-20T04:19:11;12.13;;;3.80;;
6549;SDS011;15142;48.888;9.134;2022-11-20T04:21:39;4.20;;;3.70;;
6549;SDS011;15142;48.888;9.134;2022-11-20T04:24:06;5.73;;;3.30;;
6549;SDS011;15142;48.888;9.134;2022-11-20T04:26:34;4.73;;;3.87;;
6549;SDS011;15142;48.888;9.134;2022-11-20T04:29:01;6.30;;;4.87;;
6549;SDS011;15142;48.888;9.134;2022-11-20T04:31:29;4.00;;;3.70;;
6549;SDS011;15142;48.888;9.134;2022-11-20T04:33:58;5.17;;;4.00;;
6549;SDS011;15142;48.888;9.134;2022-11-20T04:36:26;5.07;;;4.57;;
6549;SDS011;15142;48.888;9.134;2022-11-20T04:38:54;8.33;;;3.53;;
6549;SDS011;15142;48.888;9.134;2022-11-20T04:41:23;6.13;;;4.53;;
6549;SDS011;15142;48.888;9.134;2022-11-20T04:43:53;6.33;;;4.50;;
6549;SDS011;15142;48.888;9.134;2022-11-20T04:46:24;5.10;;;3.77;;
6549;SDS011;15142;48.888;9.134;2022-11-20T04:48:51;7.63;;;3.67;;
6549;SDS011;15142;48.888;9.134;2022-11-20T04:51:18;3.93;;;3.50;;
6549;SDS011;15142;48.888;9.134;2022-11-20T04:53:45;7.07;;;3.77;;
6549;SDS011;15142;48.888;9.134;2022-11-20T04:56:12;7.43;;;3.70;;
6549;SDS011;15142;48.888;9.134;2022-11-20T04:58:39;7.83;;;3.70;;
6549;SDS011;15142;48.888;9.134;2022-11-20T05:01:08;4.87;;;3.90;;
6549;SDS011;15142;48.888;9.134;2022-11-20T05:03:37;4.80;;;3.73;;
6549;SDS011;15142;48.888;9.134;2022-11-20T05:06:04;4.33;;;3.70;;
6549;SDS011;15142;48.888;9.134;2022-11-20T05:08:32;3.97;;;3.53;;
6549;SDS011;15142;48.888;9.134;2022-11-20T05:10:59;3.80;;;3.43;;
6549;SDS011;15142;48.888;9.134;2022-11-20T05:13:27;4.23;;;3.70;;
6549;SDS011;15142;48.888;9.134;2022-11-20T05:15:54;6.17;;;4.00;;
6549;SDS011;15142;48.888;9.134;2022-11-20T05:18:22;8.63;;;4.83;;
6549;SDS011;15142;48.888;9.134;2022-11-20T05:20:54;3.40;;;3.10;;
6549;SDS011;15142;48.888;9.134;2022-11-20T05:23:21;4.30;;;4.00;;
6549;SDS011;15142;48.888;9.134;2022-11-20T05:25:47;3.60;;;3.10;;
6549;SDS011;15142;48.888;9.134;2022-11-20T05:28:14;3.93;;;3.20;;
6549;SDS011;15142;48.888;9.134;2022-11-20T05:30:40;6.50;;;3.23;;
6549;SDS011;15142;48.888;9.134;2022-11-20T05:33:07;5.33;;;3.20;;
6549;SDS011;15142;48.888;9.134;2022-11-20T05:35:35;3.23;;;3.03;;
6549;SDS011;15142;48.888;9.134;2022-11-20T05:38:02;4.03;;;3.60;;
6549;SDS011;15142;48.888;9.134;2022-11-20T05:40:28;5.63;;;3.67;;
6549;SDS011;15142;48.888;9.134;2022-11-20T05:42:55;3.90;;;3.30;;
6549;SDS011;15142;48.888;9.134;2022-11-20T05:45:21;3.77;;;3.47;;
6549;SDS011;15142;48.888;9.134;2022-11-20T05:47:48;7.30;;;4.07;;
6549;SDS011;15142;48.888;9.134;2022-11-20T05:50:15;7.00;;;3.40;;
6549;SDS011;15142;48.888;9.134;2022-11-20T05:52:43;6.40;;;4.03;;
6549;SDS011;15142;48.888;9.134;2022-11-20T05:55:09;5.40;;;4.23;;
6549;SDS011;15142;48.888;9.134;2022-11-20T05:57:36;4.77;;;4.27;;
6549;SDS011;15142;48.888;9.134;2022-11-20T06:00:03;4.20;;;3.80;;
6549;SDS011;15142;48.888;9.134;2022-11-20T06:02:30;7.47;;;4.17;;
6549;SDS011;15142;48.888;9.134;2022-11-20T06:05:01;8.43;;;4.97;;
6549;SDS011;15142;48.888;9.134;2022-11-20T06:07:27;6.50;;;4.57;;
6549;SDS011;15142;48.888;9.134;2022-11-20T06:09:55;6.10;;;4.07;;
6549;SDS011;15142;48.888;9.134;2022-11-20T06:12:22;9.57;;;5.13;;
6549;SDS011;15142;48.888;9.134;2022-11-20T06:14:48;4.23;;;3.50;;
6549;SDS011;15142;48.888;9.134;2022-11-20T06:17:15;3.97;;;3.43;;
6549;SDS011;15142;48.888;9.134;2022-11-20T06:19:41;3.23;;;3.03;;
6549;SDS011;15142;48.888;9.134;2022-11-20T06:22:08;4.03;;;3.43;;
6549;SDS011;15142;48.888;9.134;2022-11-20T06:24:34;3.77;;;3.43;;
6549;SDS011;15142;48.888;9.134;2022-11-20T06:27:02;4.97;;;3.67;;
6549;SDS011;15142;48.888;9.134;2022-11-20T06:29:29;5.20;;;3.90;;
6549;SDS011;15142;48.888;9.134;2022-11-20T06:31:55;3.10;;;2.90;;
6549;SDS011;15142;48.888;9.134;2022-11-20T06:34:22;3.80;;;3.37;;
6549;SDS011;15142;48.888;9.134;2022-11-20T06:36:49;3.73;;;3.40;;
6549;SDS011;15142;48.888;9.134;2022-11-20T06:39:15;4.73;;;3.37;;
6549;SDS011;15142;48.888;9.134;2022-11-20T06:41:42;3.30;;;3.10;;
6549;SDS011;15142;48.888;9.134;2022-11-20T06:44:10;5.17;;;3.20;;
6549;SDS011;15142;48.888;9.134;2022-11-20T06:46:36;7.60;;;5.20;;
6549;SDS011;15142;48.888;9.134;2022-11-20T06:49:03;8.20;;;5.17;;
6549;SDS011;15142;48.888;9.134;2022-11-20T06:51:29;4.33;;;3.93;;
6549;SDS011;15142;48.888;9.134;2022-11-20T06:53:56;5.50;;;3.83;;
6549;SDS011;15142;48.888;9.134;2022-11-20T06:56:23;3.60;;;3.30;;
6549;SDS011;15142;48.888;9.134;2022-11-20T06:58:49;3.87;;;3.20;;
6549;SDS011;15142;48.888;9.134;2022-11-20T07:01:17;3.43;;;2.77;;
6549;SDS011;15142;48.888;9.134;2022-11-20T07:03:44;3.67;;;3.37;;
6549;SDS011;15142;48.888;9.134;2022-11-20T07:06:10;4.07;;;3.50;;
6549;SDS011;15142;48.888;9.134;2022-11-20T07:08:37;2.70;;;2.50;;
6549;SDS011;15142;48.888;9.134;2022-11-20T07:11:04;3.33;;;3.03;;
6549;SDS011;15142;48.888;9.134;2022-11-20T07:13:32;9.17;;;3.83;;
6549;SDS011;15142;48.888;9.134;2022-11-20T07:15:59;5.43;;;3.50;;
6549;SDS011;15142;48.888;9.134;2022-11-20T07:18:28;7.63;;;3.07;;
6549;SDS011;15142;48.888;9.134;2022-11-20T07:20:55;3.30;;;3.00;;
6549;SDS011;15142;48.888;9.134;2022-11-20T07:23:21;2.83;;;2.63;;
6549;SDS011;15142;48.888;9.134;2022-11-20T07:25:48;6.23;;;2.93;;
6549;SDS011;15142;48.888;9.134;2022-11-20T07:28:15;3.03;;;2.83;;
6549;SDS011;15142;48.888;9.134;2022-11-20T07:30:41;2.93;;;2.77;;
6549;SDS011;15142;48.888;9.134;2022-11-20T07:33:08;2.37;;;2.17;;
6549;SDS011;15142;48.888;9.134;2022-11-20T07:35:36;4.47;;;2.47;;
6549;SDS011;15142;48.888;9.134;2022-11-20T07:38:02;2.10;;;2.00;;
6549;SDS011;15142;48.888;9.134;2022-11-20T07:40:29;4.03;;;2.00;;
6549;SDS011;15142;48.888;9.134;2022-11-20T07:42:55;7.30;;;2.70;;
6549;SDS011;15142;48.888;9.134;2022-11-20T07:45:22;3.43;;;2.17;;
6549;SDS011;15142;48.888;9.134;2022-11-20T07:47:50;6.80;;;2.77;;
6549;SDS011;15142;48.888;9.134;2022-11-20T07:50:17;2.70;;;1.57;;
6549;SDS011;15142;48.888;9.134;2022-11-20T07:52:46;2.73;;;2.53;;
6549;SDS011;15142;48.888;9.134;2022-11-20T07:55:13;5.30;;;3.53;;
6549;SDS011;15142;48.888;9.134;2022-11-20T07:57:41;2.37;;;2.17;;
6549;SDS011;15142;48.888;9.134;2022-11-20T08:00:08;3.53;;;2.90;;
6549;SDS011;15142;48.888;9.134;2022-11-20T08:02:39;2.50;;;2.30;;
6549;SDS011;15142;48.888;9.134;2022-11-20T08:05:06;3.00;;;2.80;;
6549;SDS011;15142;48.888;9.134;2022-11-20T08:07:37;3.00;;;2.67;;
6549;SDS011;15142;48.888;9.134;2022-11-20T08:10:06;2.80;;;2.30;;
6549;SDS011;15142;48.888;9.134;2022-11-20T08:12:33;2.53;;;2.33;;
6549;SDS011;15142;48.888;9.134;2022-11-20T08:15:18;2.40;;;2.20;;
6549;SDS011;15142;48.888;9.134;2022-11-20T08:17:44;4.23;;;1.63;;
6549;SDS011;15142;48.888;9.134;2022-11-20T08:20:11;5.23;;;2.90;;
6549;SDS011;15142;48.888;9.134;2022-11-20T08:22:38;3.00;;;1.90;;
6549;SDS011;15142;48.888;9.134;2022-11-20T08:25:06;1.07;;;1.07;;
6549;SDS011;15142;48.888;9.134;2022-11-20T08:27:33;2.63;;;1.53;;
6549;SDS011;15142;48.888;9.134;2022-11-20T08:29:59;0.97;;;0.97;;
6549;SDS011;15142;48.888;9.134;2022-11-20T08:32:26;1.20;;;1.20;;
6549;SDS011;15142;48.888;9.134;2022-11-20T08:34:52;1.37;;;1.27;;
6549;SDS011;15142;48.888;9.134;2022-11-20T08:37:19;1.00;;;1.00;;
6549;SDS011;15142;48.888;9.134;2022-11-20T08:39:45;1.07;;;1.07;;
6549;SDS011;15142;48.888;9.134;2022-11-20T08:42:13;3.40;;;1.17;;
6549;SDS011;15142;48.888;9.134;2022-11-20T08:44:40;1.33;;;1.30;;
6549;SDS011;15142;48.888;9.134;2022-11-20T08:47:08;1.57;;;1.47;;
6549;SDS011;15142;48.888;9.134;2022-11-20T08:49:34;1.83;;;1.73;;
6549;SDS011;15142;48.888;9.134;2022-11-20T08:52:01;0.93;;;0.93;;
6549;SDS011;15142;48.888;9.134;2022-11-20T08:54:27;2.10;;;1.10;;
6549;SDS011;15142;48.888;9.134;2022-11-20T08:56:54;0.70;;;0.70;;
6549;SDS011;15142;48.888;9.134;2022-11-20T08:59:22;1.00;;;1.00;;
6549;SDS011;15142;48.888;9.134;2022-11-20T09:01:49;1.10;;;1.00;;
6549;SDS011;15142;48.888;9.134;2022-11-20T09:04:15;0.97;;;0.97;;
6549;SDS011;15142;48.888;9.134;2022-11-20T09:06:42;1.07;;;1.00;;
6549;SDS011;15142;48.888;9.134;2022-11-20T09:09:08;1.17;;;0.93;;
6549;SDS011;15142;48.888;9.134;2022-11-20T09:11:35;1.30;;;1.20;;
6549;SDS011;15142;48.888;9.134;2022-11-20T09:14:01;2.50;;;1.40;;
6549;SDS011;15142;48.888;9.134;2022-11-20T09:16:30;1.40;;;1.30;;
6549;SDS011;15142;48.888;9.134;2022-11-20T09:18:57;23.50;;;9.80;;
6549;SDS011;15142;48.888;9.134;2022-11-20T09:21:24;50.07;;;23.63;;
6549;SDS011;15142;48.888;9.134;2022-11-20T09:23:50;1.60;;;1.50;;
6549;SDS011;15142;48.888;9.134;2022-11-20T09:26:17;6.23;;;5.73;;
6549;SDS011;15142;48.888;9.134;2022-11-20T09:28:44;3.23;;;3.03;;
6549;SDS011;15142;48.888;9.134;2022-11-20T09:31:14;1.30;;;1.30;;
6549;SDS011;15142;48.888;9.134;2022-11-20T09:33:48;2.33;;;1.60;;
6549;SDS011;15142;48.888;9.134;2022-11-20T09:36:14;1.20;;;1.10;;
6549;SDS011;15142;48.888;9.134;2022-11-20T09:38:43;1.20;;;1.10;;
6549;SDS011;15142;48.888;9.134;2022-11-20T09:41:20;0.70;;;0.70;;
6549;SDS011;15142;48.888;9.134;2022-11-20T09:44:04;1.03;;;0.97;;
6549;SDS011;15142;48.888;9.134;2022-11-20T09:46:40;0.83;;;0.83;;
6549;SDS011;15142;48.888;9.134;2022-11-20T09:49:19;1.20;;;1.10;;
6549;SDS011;15142;48.888;9.134;2022-11-20T09:51:53;1.70;;;1.07;;
6549;SDS011;15142;48.888;9.134;2022-11-20T09:54:26;5.10;;;1.33;;
6549;SDS011;15142;48.888;9.134;2022-11-20T09:56:56;0.90;;;0.90;;
6549;SDS011;15142;48.888;9.134;2022-11-20T09:59:29;0.77;;;0.77;;
6549;SDS011;15142;48.888;9.134;2022-11-20T10:02:02;1.30;;;1.13;;
6549;SDS011;15142;48.888;9.134;2022-11-20T10:04:34;2.07;;;1.97;;
6549;SDS011;15142;48.888;9.134;2022-11-20T10:07:11;2.27;;;1.30;;
6549;SDS011;15142;48.888;9.134;2022-11-20T10:09:43;3.23;;;1.60;;
6549;SDS011;15142;48.888;9.134;2022-11-20T10:12:18;1.83;;;1.73;;
6549;SDS011;15142;48.888;9.134;2022-11-20T10:14:54;3.70;;;1.57;;
6549;SDS011;15142;48.888;9.134;2022-11-20T10:17:33;1.70;;;1.60;;
6549;SDS011;15142;48.888;9.134;2022-11-20T10:20:19;1.80;;;1.70;;
6549;SDS011;15142;48.888;9.134;2022-11-20T10:26:00;2.10;;;2.00;;
6549;SDS011;15142;48.888;9.134;2022-11-20T10:28:30;3.10;;;2.80;;
6549;SDS011;15142;48.888;9.134;2022-11-20T10:31:08;3.67;;;2.67;;
6549;SDS011;15142;48.888;9.134;2022-11-20T10:33:38;2.37;;;1.60;;
6549;SDS011;15142;48.888;9.134;2022-11-20T10:36:11;1.30;;;1.30;;
6549;SDS011;15142;48.888;9.134;2022-11-20T10:38:42;1.40;;;1.30;;
6549;SDS011;15142;48.888;9.134;2022-11-20T10:41:16;1.33;;;1.10;;
6549;SDS011;15142;48.888;9.134;2022-11-20T10:43:50;1.60;;;1.50;;
6549;SDS011;15142;48.888;9.134;2022-11-20T10:46:20;1.23;;;1.23;;
6549;SDS011;15142;48.888;9.134;2022-11-20T10:48:48;1.80;;;1.63;;
6549;SDS011;15142;48.888;9.134;2022-11-20T10:51:21;3.00;;;2.80;;
6549;SDS011;15142;48.888;9.134;2022-11-20T10:53:57;3.07;;;2.70;;
6549;SDS011;15142;48.888;9.134;2022-11-20T10:56:31;2.70;;;2.50;;
6549;SDS011;15142;48.888;9.134;2022-11-20T10:59:15;2.50;;;2.30;;
6549;SDS011;15142;48.888;9.134;2022-11-20T11:02:01;2.30;;;2.07;;
6549;SDS011;15142;48.888;9.134;2022-11-20T11:04:34;3.60;;;2.47;;
6549;SDS011;15142;48.888;9.134;2022-11-20T11:07:06;3.40;;;3.03;;
6549;SDS011;15142;48.888;9.134;2022-11-20T11:09:38;2.93;;;2.67;;
6549;SDS011;15142;48.888;9.134;2022-11-20T11:12:07;187.47;;;59.20;;
6549;SDS011;15142;48.888;9.134;2022-11-20T11:14:41;7.83;;;3.07;;
6549;SDS011;15142;48.888;9.134;2022-11-20T11:17:18;8.37;;;4.63;;
6549;SDS011;15142;48.888;9.134;2022-11-20T11:19:56;3.53;;;3.20;;
6549;SDS011;15142;48.888;9.134;2022-11-20T11:22:28;3.60;;;3.30;;
6549;SDS011;15142;48.888;9.134;2022-11-20T11:24:56;6.63;;;3.90;;
6549;SDS011;15142;48.888;9.134;2022-11-20T11:27:22;2.97;;;2.57;;
6549;SDS011;15142;48.888;9.134;2022-11-20T11:29:49;2.97;;;2.77;;
6549;SDS011;15142;48.888;9.134;2022-11-20T11:32:17;3.03;;;2.73;;
6549;SDS011;15142;48.888;9.134;2022-11-20T11:34:57;1.83;;;1.73;;
6549;SDS011;15142;48.888;9.134;2022-11-20T11:37:25;6.73;;;2.13;;
6549;SDS011;15142;48.888;9.134;2022-11-20T11:40:01;2.50;;;2.30;;
6549;SDS011;15142;48.888;9.134;2022-11-20T11:42:29;4.47;;;2.43;;
6549;SDS011;15142;48.888;9.134;2022-11-20T11:44:56;3.37;;;2.37;;
6549;SDS011;15142;48.888;9.134;2022-11-20T11:47:31;8.23;;;2.97;;
6549;SDS011;15142;48.888;9.134;2022-11-20T11:50:13;7.30;;;2.27;;
6549;SDS011;15142;48.888;9.134;2022-11-20T11:52:44;3.40;;;1.77;;
6549;SDS011;15142;48.888;9.134;2022-11-20T11:55:15;6.47;;;2.27;;
6549;SDS011;15142;48.888;9.134;2022-11-20T11:57:49;4.00;;;1.90;;
6549;SDS011;15142;48.888;9.134;2022-11-20T12:00:21;4.93;;;1.50;;
6549;SDS011;15142;48.888;9.134;2022-11-20T12:02:52;6.03;;;1.90;;
6549;SDS011;15142;48.888;9.134;2022-11-20T12:05:24;2.90;;;1.60;;
6549;SDS011;15142;48.888;9.134;2022-11-20T12:07:55;2.20;;;1.60;;
6549;SDS011;15142;48.888;9.134;2022-11-20T12:10:29;1.30;;;1.30;;
6549;SDS011;15142;48.888;9.134;2022-11-20T12:13:10;1.30;;;1.30;;
6549;SDS011;15142;48.888;9.134;2022-11-20T12:15:46;6.00;;;1.97;;
6549;SDS011;15142;48.888;9.134;2022-11-20T12:18:15;4.87;;;1.20;;
6549;SDS011;15142;48.888;9.134;2022-11-20T12:20:45;2.17;;;1.47;;
6549;SDS011;15142;48.888;9.134;2022-11-20T12:23:21;2.43;;;1.70;;
6549;SDS011;15142;48.888;9.134;2022-11-20T12:25:55;3.17;;;1.43;;
6549;SDS011;15142;48.888;9.134;2022-11-20T12:28:36;1.40;;;1.30;;
6549;SDS011;15142;48.888;9.134;2022-11-20T12:31:22;0.70;;;0.70;;
6549;SDS011;15142;48.888;9.134;2022-11-20T12:34:16;2.60;;;1.23;;
6549;SDS011;15142;48.888;9.134;2022-11-20T12:36:51;2.60;;;1.00;;
6549;SDS011;15142;48.888;9.134;2022-11-20T12:39:31;1.87;;;1.30;;
6549;SDS011;15142;48.888;9.134;2022-11-20T12:42:16;2.20;;;1.30;;
6549;SDS011;15142;48.888;9.134;2022-11-20T12:45:10;1.27;;;1.20;;
6549;SDS011;15142;48.888;9.134;2022-11-20T12:47:59;1.37;;;1.03;;
6549;SDS011;15142;48.888;9.134;2022-11-20T12:50:40;9.67;;;1.60;;
6549;SDS011;15142;48.888;9.134;2022-11-20T12:53:21;4.83;;;1.50;;
6549;SDS011;15142;48.888;9.134;2022-11-20T12:55:56;1.23;;;1.17;;
6549;SDS011;15142;48.888;9.134;2022-11-20T12:58:29;3.27;;;1.53;;
6549;SDS011;15142;48.888;9.134;2022-11-20T13:01:06;1.47;;;1.37;;
6549;SDS011;15142;48.888;9.134;2022-11-20T13:04:07;1.73;;;0.90;;
6549;SDS011;15142;48.888;9.134;2022-11-20T13:06:42;0.90;;;0.90;;
6549;SDS011;15142;48.888;9.134;2022-11-20T13:09:11;0.93;;;0.93;;
6549;SDS011;15142;48.888;9.134;2022-11-20T13:11:43;13.90;;;1.93;;
6549;SDS011;15142;48.888;9.134;2022-11-20T13:14:16;2.40;;;1.20;;
6549;SDS011;15142;48.888;9.134;2022-11-20T13:16:54;3.97;;;3.40;;
6549;SDS011;15142;48.888;9.134;2022-11-20T13:19:25;4.43;;;3.00;;
6549;SDS011;15142;48.888;9.134;2022-11-20T13:21:53;12.00;;;1.90;;
6549;SDS011;15142;48.888;9.134;2022-11-20T13:24:21;1.70;;;1.00;;
6549;SDS011;15142;48.888;9.134;2022-11-20T13:27:04;1.40;;;1.30;;
6549;SDS011;15142;48.888;9.134;2022-11-20T13:29:45;2.83;;;1.90;;
6549;SDS011;15142;48.888;9.134;2022-11-20T13:32:14;11.90;;;1.10;;
6549;SDS011;15142;48.888;9.134;2022-11-20T13:34:51;3.43;;;1.07;;
6549;SDS011;15142;48.888;9.134;2022-11-20T13:37:24;8.97;;;1.13;;
6549;SDS011;15142;48.888;9.134;2022-11-20T13:39:52;1.77;;;1.27;;
6549;SDS011;15142;48.888;9.134;2022-11-20T13:42:23;6.03;;;1.57;;
6549;SDS011;15142;48.888;9.134;2022-11-20T13:44:54;1.60;;;1.27;;
6549;SDS011;15142;48.888;9.134;2022-11-20T13:47:26;1.33;;;0.90;;
6549;SDS011;15142;48.888;9.134;2022-11-20T13:49:54;2.13;;;1.13;;
6549;SDS011;15142;48.888;9.134;2022-11-20T13:52:28;2.73;;;1.30;;
6549;SDS011;15142;48.888;9.134;2022-11-20T13:55:10;2.80;;;1.23;;
6549;SDS011;15142;48.888;9.134;2022-11-20T13:57:48;4.93;;;0.97;;
6549;SDS011;15142;48.888;9.134;2022-11-20T14:00:25;2.17;;;0.97;;
6549;SDS011;15142;48.888;9.134;2022-11-20T14:02:58;1.20;;;1.20;;
6549;SDS011;15142;48.888;9.134;2022-11-20T14:05:28;3.03;;;0.97;;
6549;SDS011;15142;48.888;9.134;2022-11-20T14:07:57;3.30;;;1.10;;
6549;SDS011;15142;48.888;9.134;2022-11-20T14:10:25;7.87;;;0.93;;
6549;SDS011;15142;48.888;9.134;2022-11-20T14:12:54;2.47;;;1.00;;
6549;SDS011;15142;48.888;9.134;2022-11-20T14:15:25;1.00;;;0.90;;
6549;SDS011;15142;48.888;9.134;2022-11-20T14:17:53;4.63;;;1.70;;
6549;SDS011;15142;48.888;9.134;2022-11-20T14:20:20;0.83;;;0.83;;
6549;SDS011;15142;48.888;9.134;2022-11-20T14:22:51;5.70;;;1.33;;
6549;SDS011;15142;48.888;9.134;2022-11-20T14:25:19;0.93;;;0.93;;
6549;SDS011;15142;48.888;9.134;2022-11-20T14:27:50;2.40;;;1.10;;
6549;SDS011;15142;48.888;9.134;2022-11-20T14:30:21;1.57;;;1.10;;
6549;SDS011;15142;48.888;9.134;2022-11-20T14:32:49;1.57;;;1.00;;
6549;SDS011;15142;48.888;9.134;2022-11-20T14:35:18;3.90;;;1.63;;
6549;SDS011;15142;48.888;9.134;2022-11-20T14:37:49;1.23;;;1.10;;
6549;SDS011;15142;48.888;9.134;2022-11-20T14:40:24;2.83;;;1.50;;
6549;SDS011;15142;48.888;9.134;2022-11-20T14:42:53;7.10;;;2.17;;
6549;SDS011;15142;48.888;9.134;2022-11-20T14:45:21;10.03;;;3.60;;
6549;SDS011;15142;48.888;9.134;2022-11-20T14:47:50;17.33;;;4.10;;
6549;SDS011;15142;48.888;9.134;2022-11-20T14:50:19;28.60;;;7.33;;
6549;SDS011;15142;48.888;9.134;2022-11-20T14:52:52;30.77;;;7.30;;
6549;SDS011;15142;48.888;9.134;2022-11-20T14:55:27;3.13;;;2.23;;
6549;SDS011;15142;48.888;9.134;2022-11-20T14:57:55;1.60;;;1.23;;
6549;SDS011;15142;48.888;9.134;2022-11-20T15:00:24;4.40;;;2.50;;
6549;SDS011;15142;48.888;9.134;2022-11-20T15:02:52;3.20;;;1.83;;
6549;SDS011;15142;48.888;9.134;2022-11-20T15:05:19;7.30;;;3.60;;
6549;SDS011;15142;48.888;9.134;2022-11-20T15:07:47;3.10;;;2.53;;
6549;SDS011;15142;48.888;9.134;2022-11-20T15:12:47;4.83;;;2.13;;
6549;SDS011;15142;48.888;9.134;2022-11-20T15:15:17;8.10;;;4.40;;
6549;SDS011;15142;48.888;9.134;2022-11-20T15:17:48;5.20;;;2.40;;